sensor_id;sensor_type;location;lat;lon;timestamp;P1;durP1;ratioP1;P2;durP2;ratioP2
17832;SDS011;9041;49.718;21.798;2023-04-03T00:00:29;4.60;;;2.30;;
17832;SDS011;9041;49.718;21.798;2023-04-03T00:02:56;3.37;;;2.60;;
17832;SDS011;9041;49.718;21.798;2023-04-03T00:05:24;2.97;;;2.40;;
17832;SDS011;9041;49.718;21.798;2023-04-03T00:07:51;3.20;;;2.63;;
17832;SDS011;9041;49.718;21.798;2023-04-03T00:10:19;3.50;;;2.20;;
17832;SDS011;9041;49.718;21.798;2023-04-03T00:12:46;3.30;;;2.30;;
17832;SDS011;9041;49.718;21.798;2023-04-03T00:15:13;3.13;;;2.40;;
17832;SDS011;9041;49.718;21.798;2023-04-03T00:17:40;2.40;;;2.13;;
17832;SDS011;9041;49.718;21.798;2023-04-03T00:20:07;2.80;;;2.17;;
17832;SDS011;9041;49.718;21.798;2023-04-03T00:22:34;4.00;;;2.10;;
17832;SDS011;9041;49.718;21.798;2023-04-03T00:25:02;2.63;;;2.27;;
17832;SDS011;9041;49.718;21.798;2023-04-03T00:27:30;3.17;;;2.17;;
17832;SDS011;9041;49.718;21.798;2023-04-03T00:29:57;2.40;;;2.20;;
17832;SDS011;9041;49.718;21.798;2023-04-03T00:32:24;4.67;;;2.10;;
17832;SDS011;9041;49.718;21.798;2023-04-03T00:34:51;3.07;;;2.23;;
17832;SDS011;9041;49.718;21.798;2023-04-03T00:37:17;2.83;;;2.10;;
17832;SDS011;9041;49.718;21.798;2023-04-03T00:39:44;3.07;;;2.20;;
17832;SDS011;9041;49.718;21.798;2023-04-03T00:42:11;2.97;;;2.17;;
17832;SDS011;9041;49.718;21.798;2023-04-03T00:47:39;2.97;;;2.00;;
17832;SDS011;9041;49.718;21.798;2023-04-03T00:50:07;3.03;;;2.20;;
17832;SDS011;9041;49.718;21.798;2023-04-03T00:52:34;2.50;;;2.00;;
17832;SDS011;9041;49.718;21.798;2023-04-03T00:55:02;5.57;;;2.03;;
17832;SDS011;9041;49.718;21.798;2023-04-03T00:57:32;3.00;;;1.80;;
17832;SDS011;9041;49.718;21.798;2023-04-03T01:00:02;2.67;;;2.10;;
17832;SDS011;9041;49.718;21.798;2023-04-03T01:02:31;3.60;;;2.13;;
17832;SDS011;9041;49.718;21.798;2023-04-03T01:04:59;3.80;;;2.00;;
17832;SDS011;9041;49.718;21.798;2023-04-03T01:07:27;2.90;;;2.20;;
17832;SDS011;9041;49.718;21.798;2023-04-03T01:09:56;2.93;;;2.00;;
17832;SDS011;9041;49.718;21.798;2023-04-03T01:12:25;3.03;;;2.20;;
17832;SDS011;9041;49.718;21.798;2023-04-03T01:14:54;4.43;;;2.40;;
17832;SDS011;9041;49.718;21.798;2023-04-03T01:17:26;4.23;;;2.37;;
17832;SDS011;9041;49.718;21.798;2023-04-03T01:20:01;5.27;;;2.27;;
17832;SDS011;9041;49.718;21.798;2023-04-03T01:22:39;4.57;;;2.27;;
17832;SDS011;9041;49.718;21.798;2023-04-03T01:25:10;3.43;;;2.63;;
17832;SDS011;9041;49.718;21.798;2023-04-03T01:27:37;2.33;;;2.13;;
17832;SDS011;9041;49.718;21.798;2023-04-03T01:30:04;4.20;;;2.30;;
17832;SDS011;9041;49.718;21.798;2023-04-03T01:32:33;2.97;;;2.37;;
17832;SDS011;9041;49.718;21.798;2023-04-03T01:35:00;5.03;;;2.50;;
17832;SDS011;9041;49.718;21.798;2023-04-03T01:37:27;4.10;;;2.83;;
17832;SDS011;9041;49.718;21.798;2023-04-03T01:39:54;3.60;;;2.60;;
17832;SDS011;9041;49.718;21.798;2023-04-03T01:42:21;4.07;;;3.07;;
17832;SDS011;9041;49.718;21.798;2023-04-03T01:44:47;4.63;;;2.70;;
17832;SDS011;9041;49.718;21.798;2023-04-03T01:47:14;2.90;;;2.27;;
17832;SDS011;9041;49.718;21.798;2023-04-03T01:49:42;3.40;;;2.80;;
17832;SDS011;9041;49.718;21.798;2023-04-03T01:52:09;4.13;;;2.97;;
17832;SDS011;9041;49.718;21.798;2023-04-03T01:54:36;3.53;;;2.70;;
17832;SDS011;9041;49.718;21.798;2023-04-03T01:57:03;5.10;;;3.07;;
17832;SDS011;9041;49.718;21.798;2023-04-03T01:59:30;5.60;;;2.87;;
17832;SDS011;9041;49.718;21.798;2023-04-03T02:01:57;3.57;;;2.67;;
17832;SDS011;9041;49.718;21.798;2023-04-03T02:04:23;3.53;;;2.73;;
17832;SDS011;9041;49.718;21.798;2023-04-03T02:06:52;2.90;;;2.47;;
17832;SDS011;9041;49.718;21.798;2023-04-03T02:09:18;3.03;;;2.70;;
17832;SDS011;9041;49.718;21.798;2023-04-03T02:11:45;3.70;;;2.60;;
17832;SDS011;9041;49.718;21.798;2023-04-03T02:14:13;4.30;;;2.30;;
17832;SDS011;9041;49.718;21.798;2023-04-03T02:16:39;3.13;;;2.60;;
17832;SDS011;9041;49.718;21.798;2023-04-03T02:19:07;2.90;;;2.23;;
17832;SDS011;9041;49.718;21.798;2023-04-03T02:21:35;3.20;;;2.40;;
17832;SDS011;9041;49.718;21.798;2023-04-03T02:24:03;5.13;;;2.47;;
17832;SDS011;9041;49.718;21.798;2023-04-03T02:26:30;3.23;;;2.33;;
17832;SDS011;9041;49.718;21.798;2023-04-03T02:28:57;7.00;;;2.30;;
17832;SDS011;9041;49.718;21.798;2023-04-03T02:31:23;3.70;;;2.47;;
17832;SDS011;9041;49.718;21.798;2023-04-03T02:33:50;3.13;;;2.53;;
17832;SDS011;9041;49.718;21.798;2023-04-03T02:36:17;4.13;;;2.43;;
17832;SDS011;9041;49.718;21.798;2023-04-03T02:38:44;2.80;;;2.27;;
17832;SDS011;9041;49.718;21.798;2023-04-03T02:41:12;3.10;;;2.00;;
17832;SDS011;9041;49.718;21.798;2023-04-03T02:43:39;3.57;;;2.60;;
17832;SDS011;9041;49.718;21.798;2023-04-03T02:46:07;6.63;;;2.77;;
17832;SDS011;9041;49.718;21.798;2023-04-03T02:48:34;2.67;;;1.93;;
17832;SDS011;9041;49.718;21.798;2023-04-03T02:51:01;2.70;;;2.07;;
17832;SDS011;9041;49.718;21.798;2023-04-03T02:53:28;2.60;;;2.00;;
17832;SDS011;9041;49.718;21.798;2023-04-03T02:55:55;2.90;;;2.17;;
17832;SDS011;9041;49.718;21.798;2023-04-03T02:58:23;2.33;;;2.03;;
17832;SDS011;9041;49.718;21.798;2023-04-03T03:00:50;3.70;;;2.10;;
17832;SDS011;9041;49.718;21.798;2023-04-03T03:03:16;3.73;;;2.47;;
17832;SDS011;9041;49.718;21.798;2023-04-03T03:05:43;4.10;;;2.67;;
17832;SDS011;9041;49.718;21.798;2023-04-03T03:08:10;9.97;;;2.33;;
17832;SDS011;9041;49.718;21.798;2023-04-03T03:10:37;6.60;;;2.50;;
17832;SDS011;9041;49.718;21.798;2023-04-03T03:13:04;2.60;;;2.10;;
17832;SDS011;9041;49.718;21.798;2023-04-03T03:15:32;2.30;;;1.93;;
17832;SDS011;9041;49.718;21.798;2023-04-03T03:17:59;2.43;;;1.73;;
17832;SDS011;9041;49.718;21.798;2023-04-03T03:20:26;2.53;;;2.13;;
17832;SDS011;9041;49.718;21.798;2023-04-03T03:22:53;2.83;;;2.10;;
17832;SDS011;9041;49.718;21.798;2023-04-03T03:25:20;3.23;;;2.20;;
17832;SDS011;9041;49.718;21.798;2023-04-03T03:27:47;3.07;;;2.23;;
17832;SDS011;9041;49.718;21.798;2023-04-03T03:30:14;2.40;;;2.20;;
17832;SDS011;9041;49.718;21.798;2023-04-03T03:32:42;3.23;;;2.20;;
17832;SDS011;9041;49.718;21.798;2023-04-03T03:35:09;2.73;;;2.30;;
17832;SDS011;9041;49.718;21.798;2023-04-03T03:37:36;3.20;;;1.80;;
17832;SDS011;9041;49.718;21.798;2023-04-03T03:40:03;2.73;;;2.23;;
17832;SDS011;9041;49.718;21.798;2023-04-03T03:42:30;3.17;;;2.03;;
17832;SDS011;9041;49.718;21.798;2023-04-03T03:44:57;3.83;;;2.47;;
17832;SDS011;9041;49.718;21.798;2023-04-03T03:47:24;3.07;;;2.20;;
17832;SDS011;9041;49.718;21.798;2023-04-03T03:49:53;4.80;;;3.17;;
17832;SDS011;9041;49.718;21.798;2023-04-03T03:52:19;7.20;;;2.43;;
17832;SDS011;9041;49.718;21.798;2023-04-03T03:54:46;3.73;;;2.20;;
17832;SDS011;9041;49.718;21.798;2023-04-03T03:57:13;4.17;;;2.73;;
17832;SDS011;9041;49.718;21.798;2023-04-03T03:59:40;2.50;;;2.10;;
17832;SDS011;9041;49.718;21.798;2023-04-03T04:02:09;7.47;;;2.83;;
17832;SDS011;9041;49.718;21.798;2023-04-03T04:04:36;3.97;;;2.70;;
17832;SDS011;9041;49.718;21.798;2023-04-03T04:07:04;3.67;;;2.70;;
17832;SDS011;9041;49.718;21.798;2023-04-03T04:09:31;4.10;;;2.83;;
17832;SDS011;9041;49.718;21.798;2023-04-03T04:11:58;4.10;;;3.10;;
17832;SDS011;9041;49.718;21.798;2023-04-03T04:14:25;3.57;;;2.50;;
17832;SDS011;9041;49.718;21.798;2023-04-03T04:16:51;4.00;;;3.13;;
17832;SDS011;9041;49.718;21.798;2023-04-03T04:19:18;3.93;;;2.77;;
17832;SDS011;9041;49.718;21.798;2023-04-03T04:21:45;5.17;;;3.23;;
17832;SDS011;9041;49.718;21.798;2023-04-03T04:24:13;4.37;;;2.80;;
17832;SDS011;9041;49.718;21.798;2023-04-03T04:26:40;4.00;;;2.80;;
17832;SDS011;9041;49.718;21.798;2023-04-03T04:29:08;9.20;;;3.30;;
17832;SDS011;9041;49.718;21.798;2023-04-03T04:31:35;7.03;;;3.67;;
17832;SDS011;9041;49.718;21.798;2023-04-03T04:34:01;3.73;;;3.00;;
17832;SDS011;9041;49.718;21.798;2023-04-03T04:36:29;4.47;;;3.27;;
17832;SDS011;9041;49.718;21.798;2023-04-03T04:38:55;5.03;;;3.33;;
17832;SDS011;9041;49.718;21.798;2023-04-03T04:41:25;4.07;;;3.30;;
17832;SDS011;9041;49.718;21.798;2023-04-03T04:43:52;6.20;;;3.37;;
17832;SDS011;9041;49.718;21.798;2023-04-03T04:46:19;3.37;;;2.80;;
17832;SDS011;9041;49.718;21.798;2023-04-03T04:48:45;6.10;;;3.07;;
17832;SDS011;9041;49.718;21.798;2023-04-03T04:51:21;4.70;;;3.27;;
17832;SDS011;9041;49.718;21.798;2023-04-03T04:53:48;3.93;;;2.50;;
17832;SDS011;9041;49.718;21.798;2023-04-03T04:56:14;4.10;;;3.27;;
17832;SDS011;9041;49.718;21.798;2023-04-03T04:58:42;3.97;;;2.90;;
17832;SDS011;9041;49.718;21.798;2023-04-03T05:01:10;4.40;;;3.10;;
17832;SDS011;9041;49.718;21.798;2023-04-03T05:03:37;5.37;;;3.37;;
17832;SDS011;9041;49.718;21.798;2023-04-03T05:06:04;4.77;;;3.10;;
17832;SDS011;9041;49.718;21.798;2023-04-03T05:08:31;4.57;;;3.00;;
17832;SDS011;9041;49.718;21.798;2023-04-03T05:10:58;5.23;;;3.30;;
17832;SDS011;9041;49.718;21.798;2023-04-03T05:13:25;4.10;;;2.77;;
17832;SDS011;9041;49.718;21.798;2023-04-03T05:15:53;4.77;;;3.23;;
17832;SDS011;9041;49.718;21.798;2023-04-03T05:18:20;2.97;;;2.67;;
17832;SDS011;9041;49.718;21.798;2023-04-03T05:20:48;3.30;;;2.87;;
17832;SDS011;9041;49.718;21.798;2023-04-03T05:23:15;5.03;;;3.00;;
17832;SDS011;9041;49.718;21.798;2023-04-03T05:25:42;3.40;;;2.80;;
17832;SDS011;9041;49.718;21.798;2023-04-03T05:28:10;3.37;;;3.07;;
17832;SDS011;9041;49.718;21.798;2023-04-03T05:30:38;7.70;;;3.13;;
17832;SDS011;9041;49.718;21.798;2023-04-03T05:33:06;3.57;;;2.77;;
17832;SDS011;9041;49.718;21.798;2023-04-03T05:35:33;5.10;;;2.93;;
17832;SDS011;9041;49.718;21.798;2023-04-03T05:38:04;5.63;;;3.00;;
17832;SDS011;9041;49.718;21.798;2023-04-03T05:40:31;5.40;;;2.67;;
17832;SDS011;9041;49.718;21.798;2023-04-03T05:42:57;3.97;;;2.97;;
17832;SDS011;9041;49.718;21.798;2023-04-03T05:45:24;5.60;;;3.57;;
17832;SDS011;9041;49.718;21.798;2023-04-03T05:47:51;3.10;;;2.53;;
17832;SDS011;9041;49.718;21.798;2023-04-03T05:50:19;5.67;;;2.77;;
17832;SDS011;9041;49.718;21.798;2023-04-03T05:52:46;3.20;;;2.63;;
17832;SDS011;9041;49.718;21.798;2023-04-03T05:55:16;6.63;;;2.60;;
17832;SDS011;9041;49.718;21.798;2023-04-03T05:57:43;5.73;;;3.03;;
17832;SDS011;9041;49.718;21.798;2023-04-03T06:00:12;4.47;;;3.17;;
17832;SDS011;9041;49.718;21.798;2023-04-03T06:02:41;3.57;;;2.33;;
17832;SDS011;9041;49.718;21.798;2023-04-03T06:05:08;4.37;;;2.87;;
17832;SDS011;9041;49.718;21.798;2023-04-03T06:07:38;4.20;;;2.60;;
17832;SDS011;9041;49.718;21.798;2023-04-03T06:10:05;4.87;;;3.10;;
17832;SDS011;9041;49.718;21.798;2023-04-03T06:12:33;4.63;;;2.73;;
17832;SDS011;9041;49.718;21.798;2023-04-03T06:15:00;3.50;;;2.77;;
17832;SDS011;9041;49.718;21.798;2023-04-03T06:17:28;4.87;;;3.17;;
17832;SDS011;9041;49.718;21.798;2023-04-03T06:19:55;4.70;;;3.10;;
17832;SDS011;9041;49.718;21.798;2023-04-03T06:22:23;6.43;;;3.40;;
17832;SDS011;9041;49.718;21.798;2023-04-03T06:24:52;5.10;;;3.27;;
17832;SDS011;9041;49.718;21.798;2023-04-03T06:27:19;8.47;;;4.43;;
17832;SDS011;9041;49.718;21.798;2023-04-03T06:29:46;6.13;;;2.93;;
17832;SDS011;9041;49.718;21.798;2023-04-03T06:32:13;6.73;;;3.43;;
17832;SDS011;9041;49.718;21.798;2023-04-03T06:34:40;3.80;;;2.80;;
17832;SDS011;9041;49.718;21.798;2023-04-03T06:39:51;8.07;;;3.07;;
17832;SDS011;9041;49.718;21.798;2023-04-03T06:42:19;5.57;;;3.37;;
17832;SDS011;9041;49.718;21.798;2023-04-03T06:44:46;7.33;;;3.37;;
17832;SDS011;9041;49.718;21.798;2023-04-03T06:47:13;7.37;;;3.70;;
17832;SDS011;9041;49.718;21.798;2023-04-03T06:49:41;7.97;;;3.40;;
17832;SDS011;9041;49.718;21.798;2023-04-03T06:52:08;3.43;;;3.13;;
17832;SDS011;9041;49.718;21.798;2023-04-03T06:54:37;5.30;;;3.77;;
17832;SDS011;9041;49.718;21.798;2023-04-03T06:57:05;7.17;;;3.80;;
17832;SDS011;9041;49.718;21.798;2023-04-03T06:59:33;8.30;;;4.00;;
17832;SDS011;9041;49.718;21.798;2023-04-03T07:02:01;5.50;;;3.50;;
17832;SDS011;9041;49.718;21.798;2023-04-03T07:04:28;4.47;;;3.30;;
17832;SDS011;9041;49.718;21.798;2023-04-03T07:06:54;4.93;;;3.43;;
17832;SDS011;9041;49.718;21.798;2023-04-03T07:09:21;4.20;;;3.47;;
17832;SDS011;9041;49.718;21.798;2023-04-03T07:11:48;10.53;;;3.97;;
17832;SDS011;9041;49.718;21.798;2023-04-03T07:14:16;7.43;;;3.87;;
17832;SDS011;9041;49.718;21.798;2023-04-03T07:16:43;5.27;;;3.33;;
17832;SDS011;9041;49.718;21.798;2023-04-03T07:19:10;7.17;;;3.63;;
17832;SDS011;9041;49.718;21.798;2023-04-03T07:21:37;5.90;;;3.47;;
17832;SDS011;9041;49.718;21.798;2023-04-03T07:24:04;6.07;;;3.70;;
17832;SDS011;9041;49.718;21.798;2023-04-03T07:26:31;5.27;;;3.30;;
17832;SDS011;9041;49.718;21.798;2023-04-03T07:28:58;5.30;;;3.70;;
17832;SDS011;9041;49.718;21.798;2023-04-03T07:31:26;6.07;;;3.77;;
17832;SDS011;9041;49.718;21.798;2023-04-03T07:33:53;8.60;;;4.00;;
17832;SDS011;9041;49.718;21.798;2023-04-03T07:36:20;5.63;;;3.60;;
17832;SDS011;9041;49.718;21.798;2023-04-03T07:38:48;7.40;;;3.60;;
17832;SDS011;9041;49.718;21.798;2023-04-03T07:41:16;4.33;;;3.10;;
17832;SDS011;9041;49.718;21.798;2023-04-03T07:43:45;5.30;;;3.53;;
17832;SDS011;9041;49.718;21.798;2023-04-03T07:46:20;5.63;;;2.97;;
17832;SDS011;9041;49.718;21.798;2023-04-03T07:48:48;5.67;;;3.30;;
17832;SDS011;9041;49.718;21.798;2023-04-03T07:51:15;6.13;;;3.60;;
17832;SDS011;9041;49.718;21.798;2023-04-03T07:53:41;8.80;;;4.23;;
17832;SDS011;9041;49.718;21.798;2023-04-03T07:56:08;6.63;;;3.87;;
17832;SDS011;9041;49.718;21.798;2023-04-03T07:58:35;6.93;;;3.60;;
17832;SDS011;9041;49.718;21.798;2023-04-03T08:01:03;5.27;;;3.67;;
17832;SDS011;9041;49.718;21.798;2023-04-03T08:03:31;5.93;;;3.80;;
17832;SDS011;9041;49.718;21.798;2023-04-03T08:06:02;5.10;;;3.70;;
17832;SDS011;9041;49.718;21.798;2023-04-03T08:08:30;5.90;;;3.60;;
17832;SDS011;9041;49.718;21.798;2023-04-03T08:10:58;5.47;;;3.47;;
17832;SDS011;9041;49.718;21.798;2023-04-03T08:13:27;4.67;;;3.63;;
17832;SDS011;9041;49.718;21.798;2023-04-03T08:15:55;4.60;;;3.47;;
17832;SDS011;9041;49.718;21.798;2023-04-03T08:18:22;4.97;;;3.27;;
17832;SDS011;9041;49.718;21.798;2023-04-03T08:20:49;5.27;;;3.97;;
17832;SDS011;9041;49.718;21.798;2023-04-03T08:23:18;6.17;;;4.40;;
17832;SDS011;9041;49.718;21.798;2023-04-03T08:25:45;8.03;;;4.10;;
17832;SDS011;9041;49.718;21.798;2023-04-03T08:28:12;6.13;;;3.67;;
17832;SDS011;9041;49.718;21.798;2023-04-03T08:30:39;9.80;;;4.47;;
17832;SDS011;9041;49.718;21.798;2023-04-03T08:33:07;8.50;;;3.93;;
17832;SDS011;9041;49.718;21.798;2023-04-03T08:35:37;6.33;;;4.30;;
17832;SDS011;9041;49.718;21.798;2023-04-03T08:38:05;8.67;;;4.07;;
17832;SDS011;9041;49.718;21.798;2023-04-03T08:40:34;6.13;;;4.00;;
17832;SDS011;9041;49.718;21.798;2023-04-03T08:43:04;6.63;;;3.90;;
17832;SDS011;9041;49.718;21.798;2023-04-03T08:45:42;10.20;;;4.07;;
17832;SDS011;9041;49.718;21.798;2023-04-03T08:48:12;6.80;;;4.40;;
17832;SDS011;9041;49.718;21.798;2023-04-03T08:50:41;6.33;;;3.83;;
17832;SDS011;9041;49.718;21.798;2023-04-03T08:53:10;7.83;;;4.10;;
17832;SDS011;9041;49.718;21.798;2023-04-03T08:55:42;5.17;;;4.03;;
17832;SDS011;9041;49.718;21.798;2023-04-03T08:58:10;11.87;;;4.60;;
17832;SDS011;9041;49.718;21.798;2023-04-03T09:00:41;5.67;;;4.23;;
17832;SDS011;9041;49.718;21.798;2023-04-03T09:03:12;8.47;;;4.10;;
17832;SDS011;9041;49.718;21.798;2023-04-03T09:05:41;7.00;;;4.57;;
17832;SDS011;9041;49.718;21.798;2023-04-03T09:08:12;8.30;;;4.60;;
17832;SDS011;9041;49.718;21.798;2023-04-03T09:10:46;16.40;;;5.23;;
17832;SDS011;9041;49.718;21.798;2023-04-03T09:13:15;11.67;;;4.73;;
17832;SDS011;9041;49.718;21.798;2023-04-03T09:15:50;6.07;;;4.00;;
17832;SDS011;9041;49.718;21.798;2023-04-03T09:18:20;8.07;;;4.40;;
17832;SDS011;9041;49.718;21.798;2023-04-03T09:20:49;6.83;;;4.10;;
17832;SDS011;9041;49.718;21.798;2023-04-03T09:23:22;10.60;;;4.40;;
17832;SDS011;9041;49.718;21.798;2023-04-03T09:25:54;5.43;;;4.00;;
17832;SDS011;9041;49.718;21.798;2023-04-03T09:28:34;10.83;;;4.43;;
17832;SDS011;9041;49.718;21.798;2023-04-03T09:31:05;5.90;;;4.20;;
17832;SDS011;9041;49.718;21.798;2023-04-03T09:33:42;5.60;;;3.67;;
17832;SDS011;9041;49.718;21.798;2023-04-03T09:36:10;14.93;;;4.17;;
17832;SDS011;9041;49.718;21.798;2023-04-03T09:38:37;11.40;;;4.10;;
17832;SDS011;9041;49.718;21.798;2023-04-03T09:41:06;5.90;;;3.40;;
17832;SDS011;9041;49.718;21.798;2023-04-03T09:43:38;5.67;;;3.27;;
17832;SDS011;9041;49.718;21.798;2023-04-03T09:46:21;7.20;;;3.50;;
17832;SDS011;9041;49.718;21.798;2023-04-03T09:48:55;6.63;;;3.70;;
17832;SDS011;9041;49.718;21.798;2023-04-03T09:51:24;6.77;;;3.80;;
17832;SDS011;9041;49.718;21.798;2023-04-03T09:53:52;4.67;;;3.30;;
17832;SDS011;9041;49.718;21.798;2023-04-03T09:56:22;10.67;;;3.50;;
17832;SDS011;9041;49.718;21.798;2023-04-03T09:58:51;8.67;;;3.93;;
17832;SDS011;9041;49.718;21.798;2023-04-03T10:01:23;8.57;;;3.70;;
17832;SDS011;9041;49.718;21.798;2023-04-03T10:04:03;10.30;;;4.10;;
17832;SDS011;9041;49.718;21.798;2023-04-03T10:06:35;8.97;;;4.70;;
17832;SDS011;9041;49.718;21.798;2023-04-03T10:09:10;7.20;;;3.90;;
17832;SDS011;9041;49.718;21.798;2023-04-03T10:11:56;8.20;;;4.60;;
17832;SDS011;9041;49.718;21.798;2023-04-03T10:14:24;9.47;;;4.80;;
17832;SDS011;9041;49.718;21.798;2023-04-03T10:16:52;8.37;;;4.10;;
17832;SDS011;9041;49.718;21.798;2023-04-03T10:19:34;14.77;;;5.03;;
17832;SDS011;9041;49.718;21.798;2023-04-03T10:22:03;10.50;;;5.23;;
17832;SDS011;9041;49.718;21.798;2023-04-03T10:24:39;9.90;;;4.27;;
17832;SDS011;9041;49.718;21.798;2023-04-03T10:27:16;7.70;;;4.10;;
17832;SDS011;9041;49.718;21.798;2023-04-03T10:29:46;7.10;;;3.93;;
17832;SDS011;9041;49.718;21.798;2023-04-03T10:32:23;5.77;;;3.40;;
17832;SDS011;9041;49.718;21.798;2023-04-03T10:34:57;7.17;;;3.73;;
17832;SDS011;9041;49.718;21.798;2023-04-03T10:37:29;10.90;;;4.40;;
17832;SDS011;9041;49.718;21.798;2023-04-03T10:40:02;5.73;;;3.53;;
17832;SDS011;9041;49.718;21.798;2023-04-03T10:42:39;5.63;;;3.10;;
17832;SDS011;9041;49.718;21.798;2023-04-03T10:45:16;4.60;;;3.10;;
17832;SDS011;9041;49.718;21.798;2023-04-03T10:47:47;5.73;;;2.80;;
17832;SDS011;9041;49.718;21.798;2023-04-03T10:50:26;5.73;;;3.07;;
17832;SDS011;9041;49.718;21.798;2023-04-03T10:53:00;4.53;;;3.10;;
17832;SDS011;9041;49.718;21.798;2023-04-03T10:55:36;5.73;;;3.07;;
17832;SDS011;9041;49.718;21.798;2023-04-03T10:58:06;4.80;;;3.07;;
17832;SDS011;9041;49.718;21.798;2023-04-03T11:00:35;5.87;;;3.00;;
17832;SDS011;9041;49.718;21.798;2023-04-03T11:03:05;3.93;;;2.70;;
17832;SDS011;9041;49.718;21.798;2023-04-03T11:05:34;8.70;;;3.30;;
17832;SDS011;9041;49.718;21.798;2023-04-03T11:08:05;7.93;;;3.43;;
17832;SDS011;9041;49.718;21.798;2023-04-03T11:10:36;8.37;;;2.97;;
17832;SDS011;9041;49.718;21.798;2023-04-03T11:13:09;3.73;;;2.70;;
17832;SDS011;9041;49.718;21.798;2023-04-03T11:15:38;5.37;;;3.10;;
17832;SDS011;9041;49.718;21.798;2023-04-03T11:18:06;6.50;;;3.23;;
17832;SDS011;9041;49.718;21.798;2023-04-03T11:20:37;5.47;;;2.80;;
17832;SDS011;9041;49.718;21.798;2023-04-03T11:23:06;7.53;;;2.87;;
17832;SDS011;9041;49.718;21.798;2023-04-03T11:25:36;5.87;;;2.67;;
17832;SDS011;9041;49.718;21.798;2023-04-03T11:28:09;7.70;;;3.30;;
17832;SDS011;9041;49.718;21.798;2023-04-03T11:30:39;7.23;;;3.20;;
17832;SDS011;9041;49.718;21.798;2023-04-03T11:33:17;10.83;;;3.53;;
17832;SDS011;9041;49.718;21.798;2023-04-03T11:35:52;5.00;;;3.27;;
17832;SDS011;9041;49.718;21.798;2023-04-03T11:38:21;5.63;;;2.63;;
17832;SDS011;9041;49.718;21.798;2023-04-03T11:40:51;12.97;;;3.60;;
17832;SDS011;9041;49.718;21.798;2023-04-03T11:43:24;7.43;;;3.23;;
17832;SDS011;9041;49.718;21.798;2023-04-03T11:46:22;11.53;;;3.20;;
17832;SDS011;9041;49.718;21.798;2023-04-03T11:48:50;6.00;;;3.47;;
17832;SDS011;9041;49.718;21.798;2023-04-03T12:12:34;8.17;;;3.77;;
17832;SDS011;9041;49.718;21.798;2023-04-03T12:15:20;10.97;;;3.63;;
17832;SDS011;9041;49.718;21.798;2023-04-03T12:17:50;7.37;;;3.50;;
17832;SDS011;9041;49.718;21.798;2023-04-03T12:23:25;6.03;;;3.73;;
17832;SDS011;9041;49.718;21.798;2023-04-03T12:25:53;8.40;;;4.20;;
17832;SDS011;9041;49.718;21.798;2023-04-03T12:28:29;9.17;;;4.53;;
17832;SDS011;9041;49.718;21.798;2023-04-03T12:31:02;8.83;;;4.37;;
17832;SDS011;9041;49.718;21.798;2023-04-03T12:33:36;16.07;;;4.53;;
17832;SDS011;9041;49.718;21.798;2023-04-03T12:36:10;7.17;;;4.33;;
17832;SDS011;9041;49.718;21.798;2023-04-03T12:38:50;5.57;;;3.53;;
17832;SDS011;9041;49.718;21.798;2023-04-03T12:41:27;9.37;;;4.17;;
17832;SDS011;9041;49.718;21.798;2023-04-03T12:44:06;8.37;;;4.07;;
17832;SDS011;9041;49.718;21.798;2023-04-03T12:46:45;9.83;;;4.30;;
17832;SDS011;9041;49.718;21.798;2023-04-03T12:49:26;8.37;;;4.20;;
17832;SDS011;9041;49.718;21.798;2023-04-03T12:52:00;7.43;;;3.83;;
17832;SDS011;9041;49.718;21.798;2023-04-03T12:54:31;9.33;;;4.20;;
17832;SDS011;9041;49.718;21.798;2023-04-03T12:57:08;10.13;;;4.03;;
17832;SDS011;9041;49.718;21.798;2023-04-03T12:59:36;13.67;;;4.30;;
17832;SDS011;9041;49.718;21.798;2023-04-03T13:02:09;6.90;;;4.27;;
17832;SDS011;9041;49.718;21.798;2023-04-03T13:04:43;8.23;;;3.57;;
17832;SDS011;9041;49.718;21.798;2023-04-03T13:07:18;8.00;;;3.83;;
17832;SDS011;9041;49.718;21.798;2023-04-03T13:09:54;8.50;;;4.37;;
17832;SDS011;9041;49.718;21.798;2023-04-03T13:12:22;11.60;;;4.07;;
17832;SDS011;9041;49.718;21.798;2023-04-03T13:14:53;13.77;;;5.47;;
17832;SDS011;9041;49.718;21.798;2023-04-03T13:17:22;9.37;;;4.33;;
17832;SDS011;9041;49.718;21.798;2023-04-03T13:19:50;8.70;;;3.37;;
17832;SDS011;9041;49.718;21.798;2023-04-03T13:22:26;13.73;;;4.93;;
17832;SDS011;9041;49.718;21.798;2023-04-03T13:24:55;8.87;;;3.90;;
17832;SDS011;9041;49.718;21.798;2023-04-03T13:27:24;7.90;;;4.00;;
17832;SDS011;9041;49.718;21.798;2023-04-03T13:29:51;13.43;;;4.23;;
17832;SDS011;9041;49.718;21.798;2023-04-03T13:32:20;8.10;;;3.80;;
17832;SDS011;9041;49.718;21.798;2023-04-03T13:34:48;12.13;;;3.40;;
17832;SDS011;9041;49.718;21.798;2023-04-03T13:37:21;15.10;;;3.97;;
17832;SDS011;9041;49.718;21.798;2023-04-03T13:39:56;10.13;;;3.70;;
17832;SDS011;9041;49.718;21.798;2023-04-03T13:42:25;5.97;;;3.30;;
17832;SDS011;9041;49.718;21.798;2023-04-03T13:47:54;5.63;;;2.87;;
17832;SDS011;9041;49.718;21.798;2023-04-03T13:50:33;3.80;;;2.33;;
17832;SDS011;9041;49.718;21.798;2023-04-03T13:53:02;5.13;;;2.50;;
17832;SDS011;9041;49.718;21.798;2023-04-03T13:55:35;5.40;;;2.60;;
17832;SDS011;9041;49.718;21.798;2023-04-03T13:58:20;3.97;;;2.50;;
17832;SDS011;9041;49.718;21.798;2023-04-03T14:00:49;4.57;;;2.67;;
17832;SDS011;9041;49.718;21.798;2023-04-03T14:03:18;4.47;;;2.30;;
17832;SDS011;9041;49.718;21.798;2023-04-03T14:05:45;3.63;;;2.13;;
17832;SDS011;9041;49.718;21.798;2023-04-03T14:08:14;3.93;;;2.23;;
17832;SDS011;9041;49.718;21.798;2023-04-03T14:10:41;5.67;;;2.53;;
17832;SDS011;9041;49.718;21.798;2023-04-03T14:13:09;4.37;;;2.10;;
17832;SDS011;9041;49.718;21.798;2023-04-03T14:15:38;5.13;;;2.33;;
17832;SDS011;9041;49.718;21.798;2023-04-03T14:18:05;4.83;;;2.50;;
17832;SDS011;9041;49.718;21.798;2023-04-03T14:20:32;7.83;;;2.80;;
17832;SDS011;9041;49.718;21.798;2023-04-03T14:22:59;5.63;;;2.50;;
17832;SDS011;9041;49.718;21.798;2023-04-03T14:25:27;5.30;;;2.80;;
17832;SDS011;9041;49.718;21.798;2023-04-03T14:27:54;5.17;;;2.80;;
17832;SDS011;9041;49.718;21.798;2023-04-03T14:30:23;4.27;;;2.33;;
17832;SDS011;9041;49.718;21.798;2023-04-03T14:32:51;5.90;;;2.50;;
17832;SDS011;9041;49.718;21.798;2023-04-03T14:35:18;4.83;;;2.33;;
17832;SDS011;9041;49.718;21.798;2023-04-03T14:37:45;6.90;;;3.00;;
17832;SDS011;9041;49.718;21.798;2023-04-03T14:40:13;4.90;;;2.87;;
17832;SDS011;9041;49.718;21.798;2023-04-03T14:42:43;6.67;;;2.67;;
17832;SDS011;9041;49.718;21.798;2023-04-03T14:45:12;6.10;;;3.10;;
17832;SDS011;9041;49.718;21.798;2023-04-03T14:47:40;8.53;;;3.13;;
17832;SDS011;9041;49.718;21.798;2023-04-03T14:50:11;5.80;;;2.73;;
17832;SDS011;9041;49.718;21.798;2023-04-03T14:52:40;5.97;;;3.30;;
17832;SDS011;9041;49.718;21.798;2023-04-03T14:55:07;5.93;;;3.17;;
17832;SDS011;9041;49.718;21.798;2023-04-03T14:57:34;7.60;;;3.67;;
17832;SDS011;9041;49.718;21.798;2023-04-03T15:00:02;10.70;;;3.87;;
17832;SDS011;9041;49.718;21.798;2023-04-03T15:02:31;7.50;;;3.53;;
17832;SDS011;9041;49.718;21.798;2023-04-03T15:04:59;6.87;;;3.50;;
17832;SDS011;9041;49.718;21.798;2023-04-03T15:07:29;10.37;;;3.80;;
17832;SDS011;9041;49.718;21.798;2023-04-03T15:09:58;7.23;;;3.50;;
17832;SDS011;9041;49.718;21.798;2023-04-03T15:12:26;10.03;;;3.40;;
17832;SDS011;9041;49.718;21.798;2023-04-03T15:14:53;11.13;;;4.07;;
17832;SDS011;9041;49.718;21.798;2023-04-03T15:17:21;7.90;;;3.50;;
17832;SDS011;9041;49.718;21.798;2023-04-03T15:19:49;6.53;;;3.63;;
17832;SDS011;9041;49.718;21.798;2023-04-03T15:22:17;7.70;;;3.67;;
17832;SDS011;9041;49.718;21.798;2023-04-03T15:24:45;5.63;;;3.30;;
17832;SDS011;9041;49.718;21.798;2023-04-03T15:27:13;9.07;;;3.70;;
17832;SDS011;9041;49.718;21.798;2023-04-03T15:29:41;7.73;;;4.03;;